Time;durP1;ratioP1;P1;durP2;ratioP2;P2;SDS_P1;SDS_P2;PMS_P1;PMS_P2;Temp;Humidity;BMP_temperature;BMP_pressure;BME280_temperature;BME280_humidity;BME280_pressure;Samples;Min_cycle;Max_cycle;Signal;HPM_P1;HPM_P2
2021/10/13 00:00:27;;;;;;;5.28;2.90;;;;;;;;;;5050696;28;20554;-84
2021/10/13 00:02:54;;;;;;;5.88;3.80;;;;;;;;;;5053000;28;20210;-84
2021/10/13 00:05:22;;;;;;;5.15;3.60;;;;;;;;;;5054098;28;20190;-84
2021/10/13 00:07:49;;;;;;;6.22;3.90;;;;;;;;;;5053949;28;20190;-87
2021/10/13 00:10:16;;;;;;;6.40;3.65;;;;;;;;;;5041159;28;20203;-82
2021/10/13 00:12:44;;;;;;;7.75;3.70;;;;;;;;;;5039871;28;20214;-83
2021/10/13 00:15:13;;;;;;;10.25;3.65;;;;;;;;;;5050796;28;20198;-85
2021/10/13 00:17:40;;;;;;;5.00;3.70;;;;;;;;;;5051583;28;20236;-84
2021/10/13 00:20:08;;;;;;;4.57;3.15;;;;;;;;;;5051342;28;20575;-83
2021/10/13 00:22:35;;;;;;;6.30;3.53;;;;;;;;;;5049503;28;20207;-86
2021/10/13 00:25:02;;;;;;;5.00;3.70;;;;;;;;;;5053622;28;20579;-85
2021/10/13 00:27:30;;;;;;;4.93;3.65;;;;;;;;;;5053737;28;20194;-85
2021/10/13 00:29:58;;;;;;;3.47;3.10;;;;;;;;;;5053562;28;20560;-84
2021/10/13 00:32:26;;;;;;;5.32;3.45;;;;;;;;;;5040907;28;20779;-87
2021/10/13 00:34:53;;;;;;;4.82;3.58;;;;;;;;;;5039024;28;20206;-83
2021/10/13 00:37:21;;;;;;;7.63;3.50;;;;;;;;;;5032082;28;20192;-83
2021/10/13 00:39:48;;;;;;;3.70;3.10;;;;;;;;;;5042909;28;20565;-85
2021/10/13 00:42:15;;;;;;;4.35;3.65;;;;;;;;;;5053252;28;20194;-86
2021/10/13 00:44:42;;;;;;;4.25;3.85;;;;;;;;;;5053396;28;20531;-84
2021/10/13 00:47:11;;;;;;;5.28;3.90;;;;;;;;;;5029960;28;20202;-84
2021/10/13 00:49:38;;;;;;;6.05;3.80;;;;;;;;;;5053133;28;20197;-84
2021/10/13 00:52:06;;;;;;;5.93;3.38;;;;;;;;;;5054594;28;20190;-83
2021/10/13 00:54:34;;;;;;;4.32;3.92;;;;;;;;;;5040670;28;20229;-83
2021/10/13 00:57:01;;;;;;;4.65;3.83;;;;;;;;;;5038364;28;20581;-85
2021/10/13 00:59:28;;;;;;;6.25;4.22;;;;;;;;;;5049061;28;20562;-85
2021/10/13 01:01:57;;;;;;;9.30;4.00;;;;;;;;;;5051951;28;20227;-86
2021/10/13 01:04:29;;;;;;;4.38;3.97;;;;;;;;;;5050309;28;20201;-86
2021/10/13 01:07:00;;;;;;;8.32;4.15;;;;;;;;;;5051172;28;20202;-84
2021/10/13 01:09:28;;;;;;;13.32;4.75;;;;;;;;;;5053231;28;20245;-84
2021/10/13 01:12:02;;;;;;;9.88;4.90;;;;;;;;;;5019994;28;20203;-86
2021/10/13 01:14:36;;;;;;;6.50;4.25;;;;;;;;;;5041072;28;20555;-83
2021/10/13 01:17:11;;;;;;;6.35;4.25;;;;;;;;;;5049464;28;20194;-84
2021/10/13 01:19:46;;;;;;;8.27;5.20;;;;;;;;;;5050908;28;20293;-86
2021/10/13 01:22:18;;;;;;;6.93;4.20;;;;;;;;;;5032068;28;20208;-83
2021/10/13 01:24:51;;;;;;;6.85;4.50;;;;;;;;;;5049962;28;20199;-85
2021/10/13 01:27:23;;;;;;;6.70;5.28;;;;;;;;;;5052178;28;20195;-86
2021/10/13 01:29:53;;;;;;;10.45;5.45;;;;;;;;;;5051136;28;20198;-86
2021/10/13 01:32:24;;;;;;;9.48;4.60;;;;;;;;;;5047934;28;20214;-85
2021/10/13 01:34:53;;;;;;;8.85;5.05;;;;;;;;;;5019642;28;20199;-85
2021/10/13 01:37:22;;;;;;;10.68;5.10;;;;;;;;;;5043518;28;20558;-87
2021/10/13 01:39:51;;;;;;;6.65;4.65;;;;;;;;;;5051097;28;20198;-82
2021/10/13 01:42:19;;;;;;;8.68;4.97;;;;;;;;;;5044086;28;20211;-85
2021/10/13 01:44:48;;;;;;;11.38;5.32;;;;;;;;;;5043859;28;20201;-83
2021/10/13 01:47:18;;;;;;;10.02;5.90;;;;;;;;;;5050254;28;20552;-86
2021/10/13 01:49:46;;;;;;;10.52;5.30;;;;;;;;;;5019453;28;20194;-85
2021/10/13 01:52:13;;;;;;;10.70;5.82;;;;;;;;;;5034692;28;20214;-88
2021/10/13 01:54:41;;;;;;;11.18;5.97;;;;;;;;;;5031298;28;20630;-86
2021/10/13 01:57:09;;;;;;;7.90;5.70;;;;;;;;;;5013693;28;20187;-83
2021/10/13 01:59:37;;;;;;;7.85;5.32;;;;;;;;;;5050531;28;20218;-85
2021/10/13 02:02:05;;;;;;;13.80;6.70;;;;;;;;;;5048924;28;20226;-85
2021/10/13 02:04:38;;;;;;;9.95;6.78;;;;;;;;;;5050979;28;20229;-85
2021/10/13 02:07:06;;;;;;;10.82;7.05;;;;;;;;;;5050899;28;20206;-83
2021/10/13 02:09:33;;;;;;;10.55;6.00;;;;;;;;;;5050030;28;20195;-86
2021/10/13 02:12:02;;;;;;;9.93;6.40;;;;;;;;;;5035355;28;20195;-82
2021/10/13 02:14:30;;;;;;;11.57;6.25;;;;;;;;;;5032582;28;20195;-86
2021/10/13 02:16:59;;;;;;;10.25;6.60;;;;;;;;;;5029427;28;20734;-83
2021/10/13 02:19:28;;;;;;;11.98;5.95;;;;;;;;;;5021612;28;20197;-83
2021/10/13 02:21:57;;;;;;;8.30;5.32;;;;;;;;;;5056918;28;20218;-83
2021/10/13 02:24:26;;;;;;;8.90;5.93;;;;;;;;;;5058992;28;20195;-84
2021/10/13 02:26:55;;;;;;;9.57;7.20;;;;;;;;;;5058040;28;20205;-87
2021/10/13 02:29:23;;;;;;;12.27;6.78;;;;;;;;;;5054320;28;20202;-84
2021/10/13 02:31:50;;;;;;;12.07;6.85;;;;;;;;;;5054968;28;20205;-83
2021/10/13 02:34:17;;;;;;;10.80;6.80;;;;;;;;;;5041444;28;20222;-83
2021/10/13 02:36:44;;;;;;;8.82;6.25;;;;;;;;;;5046394;28;20190;-85
2021/10/13 02:39:30;;;;;;;8.07;6.38;;;;;;;;;;5054738;28;20197;-84
2021/10/13 02:41:58;;;;;;;9.70;7.10;;;;;;;;;;5053187;28;20218;-84
2021/10/13 02:44:25;;;;;;;9.07;6.82;;;;;;;;;;5055342;28;20201;-85
2021/10/13 02:46:56;;;;;;;9.02;6.45;;;;;;;;;;5037472;28;20203;-87
2021/10/13 02:49:26;;;;;;;11.38;7.85;;;;;;;;;;5039829;28;20191;-85
2021/10/13 02:51:58;;;;;;;11.25;7.07;;;;;;;;;;5043429;28;20203;-82
2021/10/13 02:54:31;;;;;;;9.63;7.00;;;;;;;;;;5014920;28;1108726;-83
2021/10/13 02:56:59;;;;;;;10.98;7.10;;;;;;;;;;5052856;28;20197;-84
2021/10/13 02:59:29;;;;;;;12.00;8.13;;;;;;;;;;5052942;28;20809;-86
2021/10/13 03:01:57;;;;;;;7.35;6.47;;;;;;;;;;5051485;28;20237;-85
2021/10/13 03:04:28;;;;;;;10.68;6.85;;;;;;;;;;5041987;28;20203;-87
2021/10/13 03:06:56;;;;;;;11.57;6.75;;;;;;;;;;5041407;28;20195;-85
2021/10/13 03:09:25;;;;;;;11.68;7.10;;;;;;;;;;5053454;28;20207;-82
2021/10/13 03:12:02;;;;;;;11.25;7.20;;;;;;;;;;5052016;28;20202;-87
2021/10/13 03:14:33;;;;;;;8.77;5.78;;;;;;;;;;5037958;28;20552;-84
2021/10/13 03:17:01;;;;;;;7.82;6.57;;;;;;;;;;5052355;28;20205;-85
2021/10/13 03:21:55;;;;;;;10.50;6.60;;;;;;;;;;5038217;28;20232;-83
2021/10/13 03:24:22;;;;;;;11.18;7.07;;;;;;;;;;5036679;28;20822;-84
2021/10/13 03:26:50;;;;;;;11.38;6.68;;;;;;;;;;5051747;28;20195;-86
2021/10/13 03:29:19;;;;;;;8.10;6.18;;;;;;;;;;5051386;28;20580;-86
2021/10/13 03:31:47;;;;;;;11.77;7.45;;;;;;;;;;5052365;28;20201;-84
2021/10/13 03:34:15;;;;;;;9.07;6.25;;;;;;;;;;5050712;28;20218;-88
2021/10/13 03:36:42;;;;;;;10.50;6.90;;;;;;;;;;5020827;28;20199;-86
2021/10/13 03:39:10;;;;;;;8.05;6.43;;;;;;;;;;5026455;28;20199;-85
2021/10/13 03:41:37;;;;;;;8.82;6.70;;;;;;;;;;5034027;28;20215;-84
2021/10/13 03:44:05;;;;;;;14.07;7.45;;;;;;;;;;5051478;28;20212;-83
2021/10/13 03:46:34;;;;;;;11.55;6.35;;;;;;;;;;5037481;28;20195;-83
2021/10/13 03:49:01;;;;;;;8.40;6.53;;;;;;;;;;5052367;28;20652;-84
2021/10/13 03:51:28;;;;;;;9.18;7.22;;;;;;;;;;5042734;28;20200;-86
2021/10/13 03:53:56;;;;;;;9.57;6.22;;;;;;;;;;5038444;28;20238;-84
2021/10/13 03:56:23;;;;;;;8.57;6.30;;;;;;;;;;5052225;28;20194;-85
2021/10/13 03:58:50;;;;;;;7.47;6.50;;;;;;;;;;5050739;28;20224;-85
2021/10/13 04:01:17;;;;;;;12.18;7.45;;;;;;;;;;5053010;28;20254;-85
2021/10/13 04:03:46;;;;;;;7.80;6.80;;;;;;;;;;5051504;28;20238;-83
2021/10/13 04:06:13;;;;;;;8.27;6.70;;;;;;;;;;5050205;28;20203;-82
2021/10/13 04:08:40;;;;;;;6.90;6.07;;;;;;;;;;5038251;28;20191;-84
2021/10/13 04:11:08;;;;;;;7.60;6.90;;;;;;;;;;5035028;28;20203;-83
2021/10/13 04:13:36;;;;;;;11.45;7.65;;;;;;;;;;5034756;28;20210;-84
2021/10/13 04:16:03;;;;;;;8.60;6.93;;;;;;;;;;5052675;28;20573;-84
2021/10/13 04:18:30;;;;;;;10.00;7.00;;;;;;;;;;5052330;28;20191;-84
2021/10/13 04:20:59;;;;;;;9.18;6.75;;;;;;;;;;5051654;28;20198;-84
2021/10/13 04:23:26;;;;;;;8.30;6.65;;;;;;;;;;5044497;28;20222;-85
2021/10/13 04:25:53;;;;;;;8.98;7.05;;;;;;;;;;5037640;28;20644;-83
2021/10/13 04:28:21;;;;;;;16.48;9.75;;;;;;;;;;5049855;28;20277;-84
2021/10/13 04:30:48;;;;;;;14.23;8.23;;;;;;;;;;5049973;28;20575;-86
2021/10/13 04:33:15;;;;;;;9.35;7.10;;;;;;;;;;5049661;28;20301;-85
2021/10/13 04:35:42;;;;;;;12.77;7.47;;;;;;;;;;5050730;28;20195;-85
2021/10/13 04:38:11;;;;;;;12.10;6.95;;;;;;;;;;5053203;28;20202;-82
2021/10/13 04:40:38;;;;;;;7.85;6.72;;;;;;;;;;5037908;28;20200;-84
2021/10/13 04:43:05;;;;;;;11.32;7.32;;;;;;;;;;5039134;28;20579;-85
2021/10/13 04:45:33;;;;;;;7.45;6.43;;;;;;;;;;5049751;28;20195;-85
2021/10/13 04:48:00;;;;;;;11.50;8.05;;;;;;;;;;5052371;28;20199;-82
2021/10/13 04:50:27;;;;;;;8.95;6.75;;;;;;;;;;5050644;28;20194;-84
2021/10/13 04:52:54;;;;;;;9.38;6.50;;;;;;;;;;5052192;28;20231;-82
2021/10/13 04:55:23;;;;;;;10.75;8.00;;;;;;;;;;5048267;28;20191;-83
2021/10/13 04:57:50;;;;;;;9.07;7.57;;;;;;;;;;5037043;28;20203;-83
2021/10/13 05:00:18;;;;;;;9.40;7.35;;;;;;;;;;5045518;28;20194;-83
2021/10/13 05:02:45;;;;;;;10.55;7.43;;;;;;;;;;5051652;28;20222;-84
2021/10/13 05:05:12;;;;;;;9.43;6.65;;;;;;;;;;5055050;28;20199;-84
2021/10/13 05:07:39;;;;;;;10.27;7.00;;;;;;;;;;5052043;28;20199;-82
2021/10/13 05:10:07;;;;;;;8.45;6.78;;;;;;;;;;5053452;28;20202;-84
2021/10/13 05:12:35;;;;;;;8.77;7.03;;;;;;;;;;5052359;28;20225;-83
2021/10/13 05:15:02;;;;;;;11.10;7.30;;;;;;;;;;5053411;28;20186;-85
2021/10/13 05:17:29;;;;;;;12.10;6.93;;;;;;;;;;5047008;28;20203;-86
2021/10/13 05:19:57;;;;;;;11.65;7.40;;;;;;;;;;5037404;28;20568;-85
2021/10/13 05:22:24;;;;;;;11.38;8.13;;;;;;;;;;5044813;28;20695;-86
2021/10/13 05:24:51;;;;;;;8.73;7.80;;;;;;;;;;5051960;28;20195;-86
2021/10/13 05:27:18;;;;;;;9.85;7.70;;;;;;;;;;5051661;28;20198;-85
2021/10/13 05:29:47;;;;;;;11.25;8.10;;;;;;;;;;5049831;28;20205;-82
2021/10/13 05:32:14;;;;;;;9.48;7.25;;;;;;;;;;5051333;28;20206;-82
2021/10/13 05:34:41;;;;;;;10.23;8.00;;;;;;;;;;5052043;28;20195;-84
2021/10/13 05:37:09;;;;;;;8.07;6.50;;;;;;;;;;5051346;28;20201;-82
2021/10/13 05:39:36;;;;;;;9.68;7.47;;;;;;;;;;5047670;28;20194;-83
2021/10/13 05:42:03;;;;;;;11.82;7.45;;;;;;;;;;5036613;28;20215;-83
2021/10/13 05:44:30;;;;;;;7.97;6.80;;;;;;;;;;5044213;28;20198;-87
2021/10/13 05:46:59;;;;;;;9.00;7.28;;;;;;;;;;5049884;28;20570;-84
2021/10/13 05:49:26;;;;;;;11.02;7.40;;;;;;;;;;5049870;28;20198;-84
2021/10/13 05:51:53;;;;;;;11.02;6.93;;;;;;;;;;5050162;28;20244;-85
2021/10/13 05:54:21;;;;;;;11.25;7.07;;;;;;;;;;5047150;28;20711;-86
2021/10/13 05:56:50;;;;;;;8.95;7.10;;;;;;;;;;5036278;28;20199;-83
2021/10/13 05:59:17;;;;;;;12.18;8.05;;;;;;;;;;5041673;28;20203;-82
2021/10/13 06:01:45;;;;;;;12.82;9.20;;;;;;;;;;5046643;28;20289;-86
2021/10/13 06:04:13;;;;;;;9.13;7.95;;;;;;;;;;5037927;28;20215;-85
2021/10/13 06:06:40;;;;;;;11.13;7.80;;;;;;;;;;5049183;28;20282;-83
2021/10/13 06:09:08;;;;;;;10.85;8.35;;;;;;;;;;5044958;28;20199;-85
2021/10/13 06:11:35;;;;;;;11.50;8.73;;;;;;;;;;5039652;28;20223;-83
2021/10/13 06:14:02;;;;;;;11.07;7.45;;;;;;;;;;5036133;28;20223;-85
2021/10/13 06:16:29;;;;;;;10.25;8.13;;;;;;;;;;5038579;28;20566;-85
2021/10/13 06:18:57;;;;;;;13.00;9.35;;;;;;;;;;5047998;28;20202;-86
2021/10/13 06:21:25;;;;;;;20.20;17.23;;;;;;;;;;5040821;28;20200;-84
2021/10/13 06:23:52;;;;;;;24.63;17.27;;;;;;;;;;5047219;28;20218;-84
2021/10/13 06:26:21;;;;;;;19.48;16.20;;;;;;;;;;5043335;28;20202;-87
2021/10/13 06:28:48;;;;;;;20.00;14.07;;;;;;;;;;5039423;28;20272;-87
2021/10/13 06:31:15;;;;;;;17.60;14.80;;;;;;;;;;5044345;28;20195;-84
2021/10/13 06:33:43;;;;;;;17.23;14.52;;;;;;;;;;5047924;28;20206;-82
2021/10/13 06:36:10;;;;;;;14.70;12.63;;;;;;;;;;5045609;28;20572;-86
2021/10/13 06:38:39;;;;;;;13.53;12.13;;;;;;;;;;5043012;28;20219;-83
2021/10/13 06:41:09;;;;;;;12.48;9.95;;;;;;;;;;5040597;28;20519;-84
2021/10/13 06:43:36;;;;;;;11.48;9.73;;;;;;;;;;5035064;28;20226;-88
2021/10/13 06:46:04;;;;;;;15.23;11.13;;;;;;;;;;5031259;28;20235;-83
2021/10/13 06:48:31;;;;;;;15.20;10.55;;;;;;;;;;5048677;28;20277;-86
2021/10/13 06:50:59;;;;;;;14.05;10.55;;;;;;;;;;5048585;28;20675;-85
2021/10/13 06:53:26;;;;;;;17.77;11.65;;;;;;;;;;5048142;28;20234;-86
2021/10/13 06:55:56;;;;;;;19.10;10.10;;;;;;;;;;5044033;28;20294;-85
2021/10/13 06:58:23;;;;;;;17.83;11.10;;;;;;;;;;5036074;28;20204;-85
2021/10/13 07:00:50;;;;;;;15.97;10.47;;;;;;;;;;5035194;28;20442;-83
2021/10/13 07:03:18;;;;;;;13.23;9.47;;;;;;;;;;5041875;28;20493;-82
2021/10/13 07:05:45;;;;;;;12.27;9.03;;;;;;;;;;5050857;28;20435;-87
2021/10/13 07:08:12;;;;;;;13.90;9.30;;;;;;;;;;5044164;28;20487;-86
2021/10/13 07:10:40;;;;;;;13.50;9.97;;;;;;;;;;5040236;28;20537;-85
2021/10/13 07:13:08;;;;;;;13.30;10.13;;;;;;;;;;5052004;28;20469;-85
2021/10/13 07:15:35;;;;;;;12.60;9.50;;;;;;;;;;5055528;28;20437;-84
2021/10/13 07:18:03;;;;;;;14.10;11.10;;;;;;;;;;5039204;28;20437;-84
2021/10/13 07:20:30;;;;;;;12.07;10.10;;;;;;;;;;5038810;28;20453;-87
2021/10/13 07:22:58;;;;;;;13.10;9.50;;;;;;;;;;5037565;28;20493;-85
2021/10/13 07:25:27;;;;;;;10.27;7.90;;;;;;;;;;5050402;28;20506;-86
2021/10/13 07:27:54;;;;;;;11.10;8.93;;;;;;;;;;5051722;28;20441;-84
2021/10/13 07:30:24;;;;;;;9.53;8.13;;;;;;;;;;5043233;28;20481;-86
2021/10/13 07:32:51;;;;;;;10.67;7.63;;;;;;;;;;5040309;28;20506;-88
2021/10/13 07:35:19;;;;;;;11.20;8.13;;;;;;;;;;5052473;28;20529;-87
2021/10/13 07:37:46;;;;;;;12.60;7.83;;;;;;;;;;5048403;28;20430;-82
2021/10/13 07:40:14;;;;;;;11.60;8.80;;;;;;;;;;5038314;28;20453;-86
2021/10/13 07:42:41;;;;;;;12.07;9.07;;;;;;;;;;5049023;28;20473;-86
2021/10/13 07:45:09;;;;;;;10.43;9.33;;;;;;;;;;5050868;28;20962;-86
2021/10/13 07:47:38;;;;;;;13.43;8.40;;;;;;;;;;5047670;28;20936;-85
2021/10/13 07:50:06;;;;;;;9.10;8.27;;;;;;;;;;5033634;28;20533;-83
2021/10/13 07:52:33;;;;;;;11.60;8.77;;;;;;;;;;5049607;28;20483;-86
2021/10/13 07:55:00;;;;;;;10.40;8.83;;;;;;;;;;5039430;28;20466;-87
2021/10/13 07:57:27;;;;;;;10.53;8.80;;;;;;;;;;5041100;28;20450;-84
2021/10/13 07:59:55;;;;;;;10.97;8.50;;;;;;;;;;5052875;28;20433;-84
2021/10/13 08:02:22;;;;;;;8.80;7.90;;;;;;;;;;5050922;28;20499;-84
2021/10/13 08:04:50;;;;;;;10.80;9.40;;;;;;;;;;5051319;28;20438;-83
2021/10/13 08:07:18;;;;;;;10.10;9.07;;;;;;;;;;5051851;28;20464;-86
2021/10/13 08:09:45;;;;;;;12.67;9.20;;;;;;;;;;5041205;28;20430;-83
2021/10/13 08:12:13;;;;;;;12.40;8.87;;;;;;;;;;5037534;28;20931;-88
2021/10/13 08:14:40;;;;;;;10.50;8.03;;;;;;;;;;5050618;28;20443;-83
2021/10/13 08:17:09;;;;;;;9.60;8.37;;;;;;;;;;5049450;28;20939;-85
2021/10/13 08:19:37;;;;;;;8.23;7.40;;;;;;;;;;5051526;28;20825;-82
2021/10/13 08:22:05;;;;;;;9.13;7.77;;;;;;;;;;5052350;28;20464;-84
2021/10/13 08:24:33;;;;;;;9.63;8.00;;;;;;;;;;5043155;28;20822;-85
2021/10/13 08:27:02;;;;;;;9.20;8.30;;;;;;;;;;5037269;28;20452;-85
2021/10/13 08:29:29;;;;;;;10.53;9.13;;;;;;;;;;5043623;28;20444;-84
2021/10/13 08:31:56;;;;;;;13.67;9.60;;;;;;;;;;5034397;28;20434;-85
2021/10/13 08:34:24;;;;;;;9.80;8.80;;;;;;;;;;5050640;28;20457;-85
2021/10/13 08:36:51;;;;;;;11.70;9.13;;;;;;;;;;5033382;28;20653;-84
2021/10/13 08:39:20;;;;;;;11.90;7.83;;;;;;;;;;5050445;28;20972;-88
2021/10/13 08:41:47;;;;;;;8.93;7.27;;;;;;;;;;5037771;28;20460;-88
2021/10/13 08:44:15;;;;;;;9.30;8.23;;;;;;;;;;5041612;28;21150;-85
2021/10/13 08:46:42;;;;;;;12.30;7.80;;;;;;;;;;5032653;28;20472;-85
2021/10/13 08:49:09;;;;;;;10.17;7.30;;;;;;;;;;5050666;28;20437;-82
2021/10/13 08:51:37;;;;;;;8.30;7.37;;;;;;;;;;5048242;28;20507;-81
2021/10/13 08:54:05;;;;;;;8.30;7.00;;;;;;;;;;5040286;28;20492;-83
2021/10/13 08:56:34;;;;;;;11.13;7.87;;;;;;;;;;5053203;28;20445;-83
2021/10/13 08:59:01;;;;;;;9.30;6.90;;;;;;;;;;5052258;28;20476;-85
2021/10/13 09:01:28;;;;;;;12.73;7.80;;;;;;;;;;5034326;28;20812;-86
2021/10/13 09:03:57;;;;;;;9.67;7.67;;;;;;;;;;5036446;28;20493;-85
2021/10/13 09:06:25;;;;;;;9.73;7.37;;;;;;;;;;5037527;28;20442;-85
2021/10/13 09:08:54;;;;;;;8.40;7.13;;;;;;;;;;5045936;28;20447;-80
2021/10/13 09:11:30;;;;;;;9.10;6.60;;;;;;;;;;5035496;28;20449;-85
2021/10/13 09:14:06;;;;;;;11.23;7.00;;;;;;;;;;5049056;28;20491;-80
2021/10/13 09:16:45;;;;;;;9.47;6.00;;;;;;;;;;5051246;28;20467;-82
2021/10/13 09:19:12;;;;;;;7.07;5.67;;;;;;;;;;5051201;28;20928;-87
2021/10/13 09:21:46;;;;;;;12.37;6.30;;;;;;;;;;5052005;28;20464;-86
2021/10/13 09:24:14;;;;;;;8.93;6.73;;;;;;;;;;5042874;28;20504;-86
2021/10/13 09:26:41;;;;;;;10.23;6.40;;;;;;;;;;5036440;28;20454;-87
2021/10/13 09:29:09;;;;;;;7.67;5.97;;;;;;;;;;5039281;28;20429;-87
2021/10/13 09:31:37;;;;;;;6.73;6.00;;;;;;;;;;5049258;28;20469;-88
2021/10/13 09:34:05;;;;;;;11.43;6.93;;;;;;;;;;5049257;28;20706;-86
2021/10/13 09:36:34;;;;;;;11.50;6.67;;;;;;;;;;5033951;28;20441;-85
2021/10/13 09:39:05;;;;;;;11.00;6.23;;;;;;;;;;5046693;28;20453;-83
2021/10/13 09:41:32;;;;;;;9.70;6.00;;;;;;;;;;5046696;28;20438;-88
2021/10/13 09:44:14;;;;;;;6.70;5.30;;;;;;;;;;5036034;28;20992;-86
2021/10/13 09:46:43;;;;;;;7.00;5.43;;;;;;;;;;5025010;28;20459;-82
2021/10/13 09:49:10;;;;;;;7.70;5.60;;;;;;;;;;5047799;28;20950;-85
2021/10/13 09:51:38;;;;;;;10.40;5.87;;;;;;;;;;5047097;28;20655;-86
2021/10/13 09:54:08;;;;;;;12.73;7.07;;;;;;;;;;5029082;28;20503;-83
2021/10/13 09:56:36;;;;;;;8.03;5.50;;;;;;;;;;5050561;28;20511;-82
2021/10/13 09:59:12;;;;;;;8.67;6.00;;;;;;;;;;5036102;28;20549;-83
2021/10/13 10:01:39;;;;;;;7.80;6.60;;;;;;;;;;5034786;28;20438;-83
2021/10/13 10:04:10;;;;;;;10.00;6.00;;;;;;;;;;5046911;28;20836;-84
2021/10/13 10:06:38;;;;;;;9.77;5.90;;;;;;;;;;5031364;28;20449;-85
2021/10/13 10:09:07;;;;;;;6.77;6.07;;;;;;;;;;5035924;28;20457;-86
2021/10/13 10:11:35;;;;;;;9.07;6.00;;;;;;;;;;5039816;28;20461;-85
2021/10/13 10:14:03;;;;;;;13.57;6.20;;;;;;;;;;5037426;28;20469;-84
2021/10/13 10:16:31;;;;;;;9.77;5.47;;;;;;;;;;5038007;28;20449;-88
2021/10/13 10:19:14;;;;;;;6.07;5.03;;;;;;;;;;5038934;28;20458;-86
2021/10/13 10:21:50;;;;;;;7.60;4.60;;;;;;;;;;5045946;28;20457;-85
2021/10/13 10:24:27;;;;;;;7.43;5.73;;;;;;;;;;5038326;28;20489;-82
2021/10/13 10:26:55;;;;;;;9.03;5.50;;;;;;;;;;5032739;28;20540;-86
2021/10/13 10:29:22;;;;;;;6.80;5.10;;;;;;;;;;5019061;28;20450;-85
2021/10/13 10:31:57;;;;;;;7.43;4.60;;;;;;;;;;5034137;28;20447;-85
2021/10/13 10:34:25;;;;;;;5.70;4.50;;;;;;;;;;5044097;28;20445;-84
2021/10/13 10:37:07;;;;;;;4.90;4.30;;;;;;;;;;5045717;28;20911;-83
2021/10/13 10:39:49;;;;;;;8.73;4.50;;;;;;;;;;5041058;28;20801;-87
2021/10/13 10:42:43;;;;;;;6.57;4.50;;;;;;;;;;5048490;28;21047;-85
2021/10/13 10:45:12;;;;;;;6.20;4.60;;;;;;;;;;5025289;28;20441;-82
2021/10/13 10:47:49;;;;;;;6.63;4.80;;;;;;;;;;5039010;28;20449;-85
2021/10/13 10:50:16;;;;;;;5.80;4.00;;;;;;;;;;5064331;28;20452;-82
2021/10/13 10:52:58;;;;;;;5.77;4.40;;;;;;;;;;5062413;28;20554;-82
2021/10/13 10:55:35;;;;;;;4.93;3.70;;;;;;;;;;5019582;28;20456;-83
2021/10/13 10:58:15;;;;;;;7.97;4.63;;;;;;;;;;5043369;28;20466;-85
2021/10/13 11:00:44;;;;;;;4.60;3.90;;;;;;;;;;5019467;28;20463;-84
2021/10/13 11:03:19;;;;;;;7.57;4.40;;;;;;;;;;5037152;28;20572;-86
2021/10/13 11:05:46;;;;;;;4.37;3.90;;;;;;;;;;5051445;28;20463;-84
2021/10/13 11:08:14;;;;;;;4.90;4.40;;;;;;;;;;5038519;28;20602;-84
2021/10/13 11:10:41;;;;;;;6.40;4.20;;;;;;;;;;5019904;28;20438;-82
2021/10/13 11:13:08;;;;;;;6.47;4.40;;;;;;;;;;5035491;28;20466;-83
2021/10/13 11:15:38;;;;;;;4.77;4.30;;;;;;;;;;5051737;28;20459;-89
2021/10/13 11:18:13;;;;;;;5.37;3.97;;;;;;;;;;5050609;28;20465;-83
2021/10/13 11:20:40;;;;;;;6.50;5.10;;;;;;;;;;5051051;28;20461;-82
2021/10/13 11:23:09;;;;;;;5.63;3.90;;;;;;;;;;5049476;28;20482;-83
2021/10/13 11:25:37;;;;;;;6.23;4.30;;;;;;;;;;5041097;28;20860;-83
2021/10/13 11:28:05;;;;;;;6.10;3.67;;;;;;;;;;5054760;28;20466;-82
2021/10/13 11:30:38;;;;;;;5.60;3.73;;;;;;;;;;5040870;28;20475;-82
2021/10/13 11:33:06;;;;;;;10.63;5.23;;;;;;;;;;5042125;28;20472;-83
2021/10/13 11:35:33;;;;;;;7.03;4.70;;;;;;;;;;5049292;28;20695;-81
2021/10/13 11:38:00;;;;;;;9.50;4.70;;;;;;;;;;5035677;28;20544;-81
2021/10/13 11:40:28;;;;;;;9.00;4.13;;;;;;;;;;5053817;28;20943;-84
2021/10/13 11:42:57;;;;;;;8.30;4.17;;;;;;;;;;5052931;28;20975;-81
2021/10/13 11:45:25;;;;;;;8.33;4.13;;;;;;;;;;5050651;28;20483;-80
2021/10/13 11:47:53;;;;;;;8.73;4.10;;;;;;;;;;5038067;28;20460;-80
2021/10/13 11:50:21;;;;;;;5.30;3.40;;;;;;;;;;5047811;28;20808;-78
2021/10/13 11:52:52;;;;;;;5.20;4.07;;;;;;;;;;5051716;28;20468;-80
2021/10/13 11:55:21;;;;;;;4.00;3.20;;;;;;;;;;5052054;28;20809;-79
2021/10/13 11:57:53;;;;;;;5.73;3.43;;;;;;;;;;5036326;28;20441;-80
2021/10/13 12:00:21;;;;;;;6.90;3.80;;;;;;;;;;5028104;28;20452;-84
2021/10/13 12:02:59;;;;;;;2.73;2.10;;;;;;;;;;5036744;28;20820;-83
2021/10/13 12:05:29;;;;;;;4.03;2.13;;;;;;;;;;5016000;28;20491;-83
2021/10/13 12:08:01;;;;;;;3.03;2.13;;;;;;;;;;5021952;28;20472;-81
2021/10/13 12:10:34;;;;;;;2.90;2.10;;;;;;;;;;5028250;28;20445;-81
2021/10/13 12:13:03;;;;;;;5.03;2.80;;;;;;;;;;5046673;28;20836;-82
2021/10/13 12:15:30;;;;;;;3.60;2.50;;;;;;;;;;5031486;28;20477;-82
2021/10/13 12:18:10;;;;;;;4.70;2.23;;;;;;;;;;5037798;28;20495;-84
2021/10/13 12:20:38;;;;;;;4.63;2.60;;;;;;;;;;5037218;28;20457;-81
2021/10/13 12:23:10;;;;;;;6.20;2.97;;;;;;;;;;5041180;28;20456;-82
2021/10/13 12:25:37;;;;;;;3.40;2.10;;;;;;;;;;5031836;28;21061;-84
2021/10/13 12:28:13;;;;;;;2.77;2.03;;;;;;;;;;5038683;28;20455;-82
2021/10/13 12:30:40;;;;;;;4.60;2.07;;;;;;;;;;5033836;28;20457;-80
2021/10/13 12:33:08;;;;;;;3.33;1.90;;;;;;;;;;5041956;28;20469;-83
2021/10/13 12:35:37;;;;;;;2.70;1.40;;;;;;;;;;5021859;28;20796;-83
2021/10/13 12:38:10;;;;;;;4.57;1.60;;;;;;;;;;5051152;28;20449;-85
2021/10/13 12:40:37;;;;;;;2.67;1.80;;;;;;;;;;5048093;28;20506;-83
2021/10/13 12:43:19;;;;;;;3.17;2.30;;;;;;;;;;5050719;28;20829;-79
2021/10/13 12:45:47;;;;;;;4.37;2.40;;;;;;;;;;5035001;28;20998;-82
2021/10/13 12:48:15;;;;;;;10.30;3.70;;;;;;;;;;5053661;28;20449;-82
2021/10/13 12:51:02;;;;;;;4.80;2.37;;;;;;;;;;5035668;28;20462;-80
2021/10/13 12:53:30;;;;;;;4.23;2.70;;;;;;;;;;5054447;28;20528;-79
2021/10/13 12:55:57;;;;;;;5.60;2.97;;;;;;;;;;5039879;28;20455;-81
2021/10/13 12:58:27;;;;;;;5.10;3.00;;;;;;;;;;5038501;28;20443;-81
2021/10/13 13:00:54;;;;;;;5.10;3.10;;;;;;;;;;5040354;28;20492;-80
2021/10/13 13:03:23;;;;;;;6.00;2.90;;;;;;;;;;5045906;28;20988;-80
2021/10/13 13:05:51;;;;;;;4.60;2.73;;;;;;;;;;5045440;28;20486;-80
2021/10/13 13:08:19;;;;;;;5.90;2.50;;;;;;;;;;5048485;28;20971;-81
2021/10/13 13:10:46;;;;;;;3.70;2.27;;;;;;;;;;5047358;28;20489;-82
2021/10/13 13:13:13;;;;;;;3.27;1.80;;;;;;;;;;5050167;28;20473;-82
2021/10/13 13:15:40;;;;;;;6.13;2.50;;;;;;;;;;5047106;28;20450;-81
2021/10/13 13:18:09;;;;;;;4.40;2.07;;;;;;;;;;5041208;28;20528;-80
2021/10/13 13:20:36;;;;;;;10.43;2.80;;;;;;;;;;5034416;28;20477;-80
2021/10/13 13:23:04;;;;;;;6.60;2.90;;;;;;;;;;5044642;28;20481;-80
2021/10/13 13:25:32;;;;;;;2.67;2.10;;;;;;;;;;5028022;28;20485;-83
2021/10/13 13:27:59;;;;;;;4.10;2.60;;;;;;;;;;5048873;28;20810;-80
2021/10/13 13:30:28;;;;;;;4.13;2.50;;;;;;;;;;5049415;28;20441;-80
2021/10/13 13:32:55;;;;;;;6.17;3.70;;;;;;;;;;5044012;28;20577;-81
2021/10/13 13:35:23;;;;;;;5.77;3.50;;;;;;;;;;5035756;28;20450;-81
2021/10/13 13:37:50;;;;;;;7.50;4.00;;;;;;;;;;5019290;28;20469;-81
2021/10/13 13:40:18;;;;;;;3.20;2.60;;;;;;;;;;5044948;28;20587;-81
2021/10/13 13:42:46;;;;;;;8.37;3.10;;;;;;;;;;5048068;28;20924;-80
2021/10/13 13:45:13;;;;;;;3.97;2.70;;;;;;;;;;5048433;28;20487;-79
2021/10/13 13:47:41;;;;;;;4.77;2.80;;;;;;;;;;5044813;28;20833;-82
2021/10/13 13:50:08;;;;;;;7.10;3.33;;;;;;;;;;5037171;28;20469;-80
2021/10/13 13:52:36;;;;;;;8.30;3.10;;;;;;;;;;5036072;28;20480;-79
2021/10/13 13:55:03;;;;;;;3.70;2.43;;;;;;;;;;5038952;28;20488;-83
2021/10/13 13:57:31;;;;;;;5.63;2.83;;;;;;;;;;5032830;28;20744;-81
2021/10/13 13:59:59;;;;;;;5.50;2.70;;;;;;;;;;5045803;28;20463;-83
2021/10/13 14:02:26;;;;;;;4.63;2.43;;;;;;;;;;5041934;28;20468;-82
2021/10/13 14:04:55;;;;;;;5.97;2.70;;;;;;;;;;5015270;28;20994;-82
2021/10/13 14:07:22;;;;;;;3.13;2.40;;;;;;;;;;5038889;28;21158;-82
2021/10/13 14:09:49;;;;;;;5.27;2.83;;;;;;;;;;5043639;28;20467;-80
2021/10/13 14:12:17;;;;;;;5.63;2.40;;;;;;;;;;5041389;28;20463;-79
2021/10/13 14:14:46;;;;;;;4.30;2.63;;;;;;;;;;5049039;28;20448;-80
2021/10/13 14:17:13;;;;;;;3.07;1.83;;;;;;;;;;5037743;28;20464;-84
2021/10/13 14:19:41;;;;;;;4.00;2.30;;;;;;;;;;5042842;28;20433;-80
2021/10/13 14:22:09;;;;;;;6.27;1.97;;;;;;;;;;5040084;28;20463;-81
2021/10/13 14:24:39;;;;;;;3.00;2.20;;;;;;;;;;5053610;28;21004;-81
2021/10/13 14:27:07;;;;;;;4.43;2.13;;;;;;;;;;5047111;28;20453;-83
2021/10/13 14:29:35;;;;;;;6.47;2.43;;;;;;;;;;5052088;28;20804;-82
2021/10/13 14:32:05;;;;;;;2.60;1.87;;;;;;;;;;5050978;28;20981;-81
2021/10/13 14:34:34;;;;;;;2.40;2.03;;;;;;;;;;5050945;28;20448;-82
2021/10/13 14:37:02;;;;;;;6.90;1.80;;;;;;;;;;5038101;28;20478;-82
2021/10/13 14:39:38;;;;;;;5.60;2.57;;;;;;;;;;5044336;28;20457;-82
2021/10/13 14:42:15;;;;;;;5.40;2.97;;;;;;;;;;5035516;28;20932;-80
2021/10/13 14:44:43;;;;;;;4.23;2.73;;;;;;;;;;5051522;28;20489;-80
2021/10/13 14:47:11;;;;;;;4.37;2.57;;;;;;;;;;5051011;28;20461;-79
2021/10/13 14:49:38;;;;;;;5.90;2.63;;;;;;;;;;5045435;28;20466;-83